Latest Weather Observations for Braidwood

IDN60901

Issued at 11:31 pm EDT Friday 15 November 2019 (issued every 10 minutes, with the page automatically refreshed every 10 minutes)

About weather observations | Map of Canberra area stations | Latest observations for Canberra area | Other Formats
Station Details ID: 069132 Name: BRAIDWOOD RACECOURSE AWS Lat: -35.43 Lon: 149.78 Height: 665.2 m
Data from the previous 72 hours. | See also: Recent months at Braidwood
Date/Time
EDT
Temp
°C
App
Temp
°C
Dew
Point
°C
Rel
Hum
%
Delta-T
°C
Wind Press
QNH
hPa
Press
MSL
hPa
Rain since
9am
mm
Dir  Spd
km/h
Gust
km/h
Spd
kts
Gust
kts
15/11:30pm 9.1 7.4 7.7 91 0.7 SSE 6 9 3 5 1013.9 1012.2 0.0
15/11:00pm 9.7 8.0 8.3 91 0.7 SSE 7 9 4 5 1013.6 1011.9 0.0
15/10:30pm 10.2 8.5 8.5 89 0.9 SSE 7 17 4 9 1013.5 1011.8 0.0
15/10:00pm 11.0 9.0 8.8 86 1.1 SSE 9 15 5 8 1013.3 1011.6 0.0
15/09:30pm 11.8 10.1 8.3 79 1.8 SE 7 11 4 6 1012.8 1011.1 0.0
15/09:00pm 15.1 12.5 4.2 48 5.2 W 7 15 4 8 1012.3 1010.6 0.0
15/08:30pm 18.1 12.3 -4.5 21 9.3 WNW 17 24 9 13 1011.3 1009.5 0.0
15/08:00pm 19.0 12.6 -5.1 19 9.9 WNW 20 28 11 15 1010.8 1009.1 0.0
15/07:30pm 19.9 13.2 -4.4 19 10.2 WNW 22 32 12 17 1010.4 1008.7 0.0
15/07:00pm 21.1 13.9 -4.9 17 10.9 NW 24 37 13 20 1009.7 1007.9 0.0
15/06:30pm 22.2 14.1 -6.5 14 11.8 WNW 28 37 15 20 1009.2 1007.5 0.0
15/06:00pm 23.1 15.9 -4.9 15 12.0 NW 24 39 13 21 1008.7 1006.9 0.0
15/05:30pm 23.6 15.7 -4.5 15 12.2 WNW 28 41 15 22 1008.6 1006.8 0.0
15/05:00pm 23.6 15.3 -5.4 14 12.4 WNW 30 48 16 26 1008.5 1006.7 0.0
15/04:30pm 23.9 15.7 -4.3 15 12.3 NW 30 50 16 27 1008.2 1006.4 0.0
15/04:00pm 23.9 15.1 -4.3 15 12.3 NW 33 54 18 29 1008.3 1006.5 0.0
15/03:41pm 24.1 14.9 -4.1 15 12.3 WNW 35 54 19 29 1008.3 1006.5 0.0
15/03:30pm 24.6 14.6 -4.6 14 12.7 WNW 39 54 21 29 1008.3 1006.5 0.0
15/03:17pm 24.5 15.8 -4.7 14 12.7 WNW 32 50 17 27 1008.4 1006.6 0.0
15/03:13pm 24.7 16.3 -5.5 13 13.0 WNW 30 50 16 27 1008.3 1006.5 0.0
15/03:00pm 24.3 16.1 -4.0 15 12.5 NW 30 50 16 27 1008.5 1006.7 0.0
15/02:37pm 24.5 17.0 -1.3 18 11.9 NW 28 50 15 27 1008.5 1006.7 0.0
15/02:30pm 25.3 18.3 -0.7 18 12.2 NW 26 37 14 20 1008.4 1006.6 0.0
15/02:00pm 23.5 15.2 -1.4 19 11.4 WNW 32 54 17 29 1008.5 1006.7 0.0
15/01:30pm 24.3 13.7 -1.5 18 11.9 WNW 44 65 24 35 1008.5 1006.7 0.0
15/01:14pm 24.3 16.1 -0.8 19 11.7 NW 32 59 17 32 1008.7 1006.9 0.0
15/01:00pm 22.6 15.0 0.4 23 10.5 NW 30 46 16 25 1008.9 1007.2 0.0
15/12:39pm 22.0 13.0 -0.1 23 10.3 WNW 37 56 20 30 1009.0 1007.3 0.0
15/12:30pm 21.4 11.8 -1.2 22 10.2 WNW 39 54 21 29 1008.9 1007.2 0.0
15/12:03pm 20.9 11.9 0.2 25 9.6 WNW 37 59 20 32 1009.2 1007.5 0.0
15/12:00pm 20.4 11.8 0.3 26 9.3 WNW 35 46 19 25 1009.2 1007.5 0.0
15/11:32am 19.5 10.9 0.5 28 8.8 WNW 35 56 19 30 1009.8 1008.0 0.0
15/11:30am 19.4 10.5 0.9 29 8.6 WNW 37 56 20 30 1009.8 1008.0 0.0
15/11:09am 19.1 10.2 0.7 29 8.5 WNW 37 56 20 30 1010.0 1008.2 0.0
15/11:00am 18.8 9.2 1.3 31 8.2 WNW 41 57 22 31 1010.0 1008.2 0.0
15/10:32am 17.6 9.1 1.2 33 7.5 WNW 35 56 19 30 1010.2 1008.5 0.0
15/10:30am 17.5 9.0 1.1 33 7.5 WNW 35 54 19 29 1010.2 1008.5 0.0
15/10:18am 17.5 10.4 1.5 34 7.4 WNW 28 48 15 26 1010.2 1008.5 0.0
15/10:00am 17.3 11.5 2.1 36 7.1 WNW 22 32 12 17 1010.4 1008.7 0.0
15/09:30am 16.9 12.8 2.5 38 6.8 NW 13 28 7 15 1010.7 1009.0 0.0
15/09:00am 16.0 12.0 2.8 41 6.2 NW 13 22 7 12 1011.1 1009.3 0.0
15/08:30am 15.6 10.8 2.7 42 6.0 NW 17 24 9 13 1010.8 1009.1 0.0
15/08:00am 15.6 11.4 3.7 45 5.7 NW 15 24 8 13 1010.7 1009.0 0.0
15/07:30am 14.9 11.9 4.3 49 5.1 NNW 9 17 5 9 1010.6 1008.9 0.0
15/07:00am 13.6 10.6 4.2 53 4.5 NNW 9 15 5 8 1010.5 1008.8 0.0
15/06:30am 13.0 9.3 4.2 55 4.2 NW 13 19 7 10 1010.5 1008.8 0.0
15/06:00am 12.2 9.1 3.7 56 4.0 NW 9 20 5 11 1010.3 1008.6 0.0
15/05:30am 13.2 8.5 3.3 51 4.6 NW 17 26 9 14 1010.0 1008.2 0.0
15/05:00am 14.7 7.0 3.5 47 5.3 WNW 33 52 18 28 1009.6 1007.8 0.0
15/04:55am 14.6 7.5 3.7 48 5.2 WNW 30 52 16 28 1009.6 1007.8 0.0
15/04:30am 13.9 9.3 3.9 51 4.7 NW 17 28 9 15 1009.9 1008.1 0.0
15/04:00am 12.7 10.5 3.6 54 4.2 N 4 11 2 6 1010.4 1008.7 0.0
15/03:30am 13.8 9.9 3.6 50 4.8 NW 13 20 7 11 1010.6 1008.9 0.0
15/03:00am 14.3 9.7 3.7 49 5.0 NW 17 28 9 15 1010.7 1009.0 0.0
15/02:30am 12.8 10.3 4.0 55 4.1 N 6 11 3 6 1011.2 1009.4 0.0
15/02:00am 12.8 10.2 4.0 55 4.1 NNW 7 13 4 7 1011.6 1009.9 0.0
15/01:30am 12.2 9.7 3.7 56 3.9 NW 6 11 3 6 1011.9 1010.2 0.0
15/01:00am 12.4 10.4 4.4 58 3.8 N 4 9 2 5 1012.3 1010.6 0.0
15/12:30am 12.2 10.6 4.4 59 3.7 NNW 2 9 1 5 1012.9 1011.2 0.0
15/12:00am 11.6 8.8 3.4 57 3.8 NNW 7 13 4 7 1013.2 1011.5 0.0
 
Date/Time
EDT
Temp
°C
App
Temp
°C
Dew
Point
°C
Rel
Hum
%
Delta-T
°C
Wind Press
QNH
hPa
Press
MSL
hPa
Rain since
9am
mm
Dir  Spd
km/h
Gust
km/h
Spd
kts
Gust
kts
14/11:30pm 13.4 11.2 3.2 50 4.7 NNW 4 7 2 4 1013.4 1011.7 0.0
14/11:00pm 13.6 10.5 3.7 51 4.7 WNW 9 13 5 7 1013.6 1011.9 0.0
14/10:30pm 13.5 11.4 4.1 53 4.4 W 4 7 2 4 1013.8 1012.1 0.0
14/10:00pm 12.2 10.7 4.9 61 3.5 SSE 2 4 1 2 1013.8 1012.1 0.0
14/09:30pm 13.8 11.3 3.6 50 4.8 SW 6 11 3 6 1013.6 1011.9 0.0
14/09:00pm 16.9 13.0 3.2 40 6.5 WNW 13 24 7 13 1013.4 1011.7 0.0
14/08:30pm 17.7 13.4 3.2 38 7.0 W 15 20 8 11 1013.0 1011.3 0.0
14/08:00pm 18.1 13.0 2.8 36 7.3 WNW 19 26 10 14 1012.3 1010.6 0.0
14/07:30pm 19.0 13.8 2.4 33 7.9 WNW 19 26 10 14 1012.1 1010.4 0.0
14/07:00pm 19.9 13.3 2.3 31 8.4 WNW 26 37 14 20 1011.6 1009.9 0.0
14/06:30pm 20.6 13.3 2.4 30 8.8 WNW 30 41 16 22 1011.3 1009.5 0.0
14/06:00pm 21.6 15.0 2.3 28 9.4 WNW 26 43 14 23 1010.7 1009.0 0.0
14/05:30pm 22.6 15.0 2.7 27 9.8 WNW 32 41 17 22 1010.5 1008.8 0.0
14/05:00pm 23.1 15.5 2.6 26 10.1 WNW 32 46 17 25 1010.4 1008.7 0.0
14/04:30pm 23.8 16.5 2.6 25 10.5 WNW 30 46 16 25 1010.4 1008.7 0.0
14/04:00pm 23.5 17.0 2.4 25 10.4 NW 26 41 14 22 1010.8 1009.1 0.0
14/03:30pm 23.5 17.2 1.8 24 10.6 NW 24 41 13 22 1011.3 1009.5 0.0
14/03:00pm 24.6 19.8 2.7 24 10.9 NNW 17 30 9 16 1011.5 1009.8 0.0
14/02:30pm 24.2 19.9 3.5 26 10.4 NNW 15 33 8 18 1011.9 1010.2 0.0
14/02:00pm 23.7 18.5 2.5 25 10.5 NW 19 41 10 22 1012.4 1010.7 0.0
14/01:30pm 22.3 16.3 1.3 25 10.0 NW 22 39 12 21 1012.7 1010.9 0.0
14/01:00pm 23.2 17.9 2.1 25 10.3 NW 19 32 10 17 1013.1 1011.4 0.0
14/12:30pm 21.9 16.6 1.6 26 9.7 WNW 19 35 10 19 1013.5 1011.8 0.0
14/12:00pm 21.4 16.5 1.7 27 9.4 WNW 17 32 9 17 1014.0 1012.3 0.0
14/11:30am 20.1 16.3 1.5 29 8.8 NW 11 24 6 13 1014.6 1012.9 0.0
14/11:00am 19.0 14.4 1.5 31 8.2 WNW 15 28 8 15 1014.8 1013.1 0.0
14/10:30am 19.2 15.8 2.1 32 8.1 NNW 9 17 5 9 1015.2 1013.5 0.0
14/10:00am 17.4 13.5 1.0 33 7.5 NW 11 20 6 11 1015.5 1013.9 0.0
14/09:30am 16.5 12.8 2.5 39 6.6 NW 11 19 6 10 1015.8 1014.1 0.0
14/09:00am 15.4 11.2 1.5 39 6.3 NW 13 22 7 12 1015.8 1014.1 0.0
14/08:30am 14.9 10.8 2.1 42 5.9 WNW 13 20 7 11 1015.8 1014.1 0.0
14/08:00am 13.1 10.0 1.1 44 5.3 NNW 7 13 4 7 1015.8 1014.1 0.0
14/07:30am 11.8 8.9 1.4 49 4.6 NNW 6 11 3 6 1015.6 1014.0 0.0
14/07:00am 9.3 7.0 0.5 54 3.7 N 2 7 1 4 1015.6 1014.0 0.0
14/06:30am 8.2 3.8 0.4 58 3.2 NW 13 19 7 10 1014.9 1013.2 0.0
14/06:00am 5.4 3.3 -0.8 64 2.4 CALM 0 0 0 0 1014.9 1013.2 0.0
14/05:30am 6.4 4.3 -0.6 61 2.8 CALM 0 0 0 0 1014.7 1013.0 0.0
14/05:00am 6.4 4.3 -0.8 60 2.9 CALM 0 0 0 0 1014.4 1012.7 0.0
14/04:30am 6.8 4.8 -0.4 60 2.9 CALM 0 0 0 0 1014.5 1012.8 0.0
14/04:00am 6.8 4.7 -0.6 59 3.0 CALM 0 0 0 0 1014.6 1012.9 0.0
14/03:30am 7.6 5.6 -0.4 57 3.2 CALM 0 0 0 0 1014.7 1013.0 0.0
14/03:00am 8.7 6.8 0.4 56 3.5 CALM 0 0 0 0 1014.5 1012.8 0.0
14/02:30am 8.0 5.9 -0.7 54 3.5 CALM 0 0 0 0 1014.5 1012.8 0.0
14/02:00am 9.7 6.5 -0.8 48 4.3 NW 6 9 3 5 1014.7 1013.0 0.0
14/01:30am 9.9 6.7 -0.6 48 4.3 NW 6 9 3 5 1014.8 1013.1 0.0
14/01:00am 9.7 6.8 -1.3 46 4.5 NNW 4 7 2 4 1015.1 1013.4 0.0
14/12:30am 10.7 7.4 -1.0 44 4.8 W 6 9 3 5 1015.4 1013.8 0.0
14/12:00am 11.7 7.5 -1.1 41 5.3 W 11 20 6 11 1015.4 1013.8 0.0
 
Date/Time
EDT
Temp
°C
App
Temp
°C
Dew
Point
°C
Rel
Hum
%
Delta-T
°C
Wind Press
QNH
hPa
Press
MSL
hPa
Rain since
9am
mm
Dir  Spd
km/h
Gust
km/h
Spd
kts
Gust
kts
13/11:30pm 11.4 7.1 -1.7 40 5.4 W 11 17 6 9 1015.3 1013.6 0.0
13/11:00pm 11.9 7.6 -1.6 39 5.6 W 11 22 6 12 1015.2 1013.5 0.0
13/10:30pm 12.0 7.3 -1.9 38 5.7 WNW 13 20 7 11 1015.2 1013.5 0.0
13/10:00pm 12.6 9.0 -2.1 36 6.0 NW 7 15 4 8 1014.8 1013.1 0.0
13/09:30pm 13.2 7.7 -1.9 35 6.3 WNW 17 28 9 15 1014.2 1012.5 0.0
13/09:00pm 13.4 6.9 -2.1 34 6.4 WNW 22 39 12 21 1013.4 1011.7 0.0
13/08:30pm 13.9 7.8 -2.1 33 6.6 WNW 20 35 11 19 1013.1 1011.4 0.0
13/08:00pm 14.6 8.6 -1.9 32 6.9 WNW 20 28 11 15 1012.7 1010.9 0.0
13/07:30pm 15.5 9.4 -2.0 30 7.4 WNW 20 32 11 17 1012.1 1010.4 0.0
13/07:00pm 16.7 8.4 -1.9 28 8.0 WNW 32 43 17 23 1011.8 1010.1 0.0
13/06:30pm 17.5 9.1 -2.7 25 8.6 WNW 32 44 17 24 1011.3 1009.5 0.0
13/06:00pm 18.5 9.8 -3.0 23 9.2 WNW 33 44 18 24 1010.8 1009.1 0.0
13/05:30pm 19.1 10.4 -3.7 21 9.6 WNW 33 44 18 24 1010.5 1008.8 0.0
13/05:00pm 19.5 11.7 -3.4 21 9.8 WNW 28 43 15 23 1010.1 1008.3 0.0
13/04:30pm 20.1 13.0 -4.2 19 10.2 NW 24 39 13 21 1009.9 1008.1 0.0
13/04:00pm 20.4 12.8 -5.4 17 10.7 WNW 26 39 14 21 1010.0 1008.2 0.0
13/03:30pm 20.0 12.3 -6.5 16 10.7 WNW 26 41 14 22 1010.4 1008.7 0.0
13/03:00pm 20.3 13.8 -5.5 17 10.6 NW 20 41 11 22 1010.5 1008.8 0.0
13/02:30pm 19.2 12.7 -6.4 17 10.2 NW 20 37 11 20 1010.6 1008.9 0.0
13/02:00pm 19.1 12.5 -6.5 17 10.2 WNW 20 37 11 20 1011.4 1009.6 0.0
13/01:30pm 18.8 12.9 -5.3 19 9.8 NW 17 35 9 19 1012.0 1010.3 0.0
13/01:00pm 17.0 11.4 -6.8 19 9.2 WNW 15 26 8 14 1012.3 1010.6 0.0
13/12:30pm 17.1 11.9 -6.7 19 9.3 WNW 13 30 7 16 1012.4 1010.7 0.0
13/12:00pm 16.4 11.5 -6.6 20 8.9 W 11 26 6 14 1012.8 1011.1 0.0
13/11:30am 15.7 9.2 -7.8 19 8.8 W 19 28 10 15 1013.1 1011.4 0.0
13/11:00am 14.8 8.2 -8.6 19 8.5 W 19 28 10 15 1013.6 1011.9 0.0
13/10:30am 14.1 9.2 -7.3 22 7.9 WNW 11 26 6 14 1013.6 1011.9 0.0
13/10:00am 12.7 7.0 -7.3 24 7.3 WNW 15 26 8 14 1013.5 1011.8 0.0
13/09:30am 12.4 6.4 -7.0 25 7.1 W 17 26 9 14 1013.4 1011.7 0.0
13/09:00am 11.6 6.0 -6.7 27 6.7 W 15 24 8 13 1013.6 1011.9 0.0
13/08:30am 10.7 6.2 -6.6 29 6.3 W 9 17 5 9 1013.4 1011.7 0.0
13/08:00am 10.1 6.1 -5.4 33 5.7 SW 7 9 4 5 1013.3 1011.6 0.0
13/07:30am 9.1 5.4 -4.8 37 5.2 WNW 6 9 3 5 1013.1 1011.4 0.0
13/07:00am 8.2 4.6 -3.6 43 4.5 WSW 6 9 3 5 1012.7 1010.9 0.0
13/06:30am 5.7 2.0 -3.1 53 3.3 ESE 7 9 4 5 1012.7 1010.9 0.0
13/06:00am 6.0 1.5 -3.6 50 3.5 W 11 17 6 9 1011.8 1010.1 0.0
13/05:30am 6.6 2.8 -3.9 47 3.9 WSW 7 11 4 6 1011.4 1009.6 0.0
13/05:00am 8.2 2.9 -3.3 44 4.4 W 15 20 8 11 1011.1 1009.3 0.0
13/04:30am 8.8 2.8 -3.1 43 4.6 W 19 26 10 14 1010.6 1008.9 0.0
13/04:00am 9.1 3.1 -2.8 43 4.6 W 19 26 10 14 1010.7 1009.0 0.0
13/03:30am 8.6 3.8 -2.6 45 4.3 W 13 19 7 10 1010.6 1008.9 0.0
13/03:00am 6.0 3.6 -3.1 52 3.4 CALM 0 0 0 0 1010.7 1009.0 0.0
13/02:30am 6.9 3.3 -3.6 47 3.9 W 6 7 3 4 1010.8 1009.1 0.0
13/02:00am 8.9 4.8 -3.3 42 4.7 W 9 13 5 7 1010.7 1009.0 0.0
13/01:30am 9.0 4.9 -2.9 43 4.6 W 9 17 5 9 1010.8 1009.1 0.0
13/01:00am 9.2 5.4 -0.7 50 4.1 W 9 17 5 9 1010.8 1009.1 0.0
13/12:30am 7.0 4.8 3.3 77 1.6 NNW 4 9 2 5 1011.0 1009.2 0.0
13/12:00am 5.8 4.2 4.6 92 0.5 E 2 4 1 2 1010.7 1009.0 0.0

Latest Capital City Observations: Canberra | Sydney | Melbourne | Brisbane | Adelaide | Perth | Hobart | Darwin

Other formats

Comma delimited format used in spreadsheet applications
http://www.bom.gov.au/fwo/IDN60903/IDN60903.94927.axf

JavaScript Object Notation format (JSON) in row-major order
http://www.bom.gov.au/fwo/IDN60903/IDN60903.94927.json

Data quality

Most of these data are generated automatically and are frequently updated. Quality checks on data are not normally performed. It is possible for incorrect values to appear. Refer to information at About Latest Weather Observations and please check the disclaimer before using these data.